Terminal Aerodrome Forecast
Issued by NWS El Paso, TX

Home | Current Version | Previous Version | Text Only | Print | Product List | Glossary On
Versions: 1 2 3 4 5 6 7 8 9 10 11 12 13
516
FTUS44 KEPZ 242320
TAFELP
TAF
KELP 242320Z 2500/2524 09007KT P6SM FEW110 SCT140 SCT250
     FM250400 14008KT P6SM FEW150
     FM251200 05005KT P6SM SKC
     FM252000 09007KT P6SM FEW100 SCT140=

USA.gov is the U.S. government's official web portal to all federal, state and local government web resources and services.